createdAt,value
2023-05-22T00:01:32.839Z,100167.09
2023-05-22T00:03:59.906Z,100164.75
2023-05-22T00:07:03.825Z,100167.03
2023-05-22T00:09:30.232Z,100163.84
2023-05-22T00:11:56.613Z,100165.91
2023-05-22T00:14:23.040Z,100159.22
2023-05-22T00:16:50.247Z,100160.88
2023-05-22T00:19:17.310Z,100152.88
2023-05-22T00:21:44.197Z,100156.16
2023-05-22T00:24:10.812Z,100154.88
2023-05-22T00:26:37.421Z,100158.72
2023-05-22T00:29:05.635Z,100157.72
2023-05-22T00:31:32.054Z,100153.25
2023-05-22T00:33:59.150Z,100150.41
2023-05-22T00:36:25.721Z,100151.81
2023-05-22T00:38:52.087Z,100157.19
2023-05-22T00:41:18.723Z,100148.94
2023-05-22T00:43:45.576Z,100147.75
2023-05-22T00:46:12.639Z,100146.34
2023-05-22T00:48:39.230Z,100152.63
2023-05-22T00:51:07.153Z,100149.47
2023-05-22T00:53:33.959Z,100143.66
2023-05-22T00:56:00.939Z,100145.72
2023-05-22T00:58:27.697Z,100148.81
2023-05-22T01:00:55.482Z,100148.03
2023-05-22T01:03:26.356Z,100144.03
2023-05-22T01:05:54.094Z,100145.22
2023-05-22T01:08:21.360Z,100142.41
2023-05-22T01:10:52.366Z,100147.72
2023-05-22T01:13:21.369Z,100151.47
2023-05-22T01:15:57.115Z,100146.25
2023-05-22T01:18:32.005Z,100141.84
2023-05-22T01:21:23.800Z,100152.06
2023-05-22T01:24:06.429Z,100149.88
2023-05-22T01:27:05.052Z,100144.84
2023-05-22T01:30:04.067Z,100148.94
2023-05-22T01:32:34.119Z,100145.38
2023-05-22T01:35:03.260Z,100149.59
2023-05-22T01:37:30.855Z,100153.69
2023-05-22T01:39:58.239Z,100149.59
2023-05-22T01:42:24.952Z,100152.44
2023-05-22T01:44:51.503Z,100152.63
2023-05-22T01:47:18.097Z,100159.09
2023-05-22T01:49:45.549Z,100153.22
2023-05-22T01:52:29.890Z,100154.69
2023-05-22T01:55:04.961Z,100153.41
2023-05-22T01:57:39.051Z,100160.69
2023-05-22T02:00:13.885Z,100153.09
2023-05-22T02:02:49.662Z,100153.09
2023-05-22T02:05:18.819Z,100162.63
2023-05-22T02:07:46.126Z,100156.19
2023-05-22T02:10:14.145Z,100158.13
2023-05-22T02:12:41.725Z,100151.03
2023-05-22T02:15:08.927Z,100148.41
2023-05-22T02:17:42.424Z,100153.69
2023-05-22T02:20:15.132Z,100146.97
2023-05-22T02:22:44.320Z,100157.03
2023-05-22T02:25:14.298Z,100159.28
2023-05-22T02:27:45.089Z,100154.19
2023-05-22T02:30:12.652Z,100152.25
2023-05-22T02:32:40.267Z,100146.53
2023-05-22T02:35:07.698Z,100144.47
2023-05-22T02:37:34.347Z,100154.94
2023-05-22T02:40:00.785Z,100146.69
2023-05-22T02:42:27.248Z,100151.13
2023-05-22T02:44:53.631Z,100146.53
2023-05-22T02:47:20.135Z,100142.78
2023-05-22T02:49:47.619Z,100141.13
2023-05-22T02:52:13.983Z,100142.16
2023-05-22T02:54:40.394Z,100138.94
2023-05-22T02:57:06.845Z,100142.34
2023-05-22T02:59:33.512Z,100152.31
2023-05-22T03:01:59.937Z,100141.19
2023-05-22T03:04:26.388Z,100144.91
2023-05-22T03:06:52.885Z,100148.66
2023-05-22T03:09:20.251Z,100152.06
2023-05-22T03:11:46.748Z,100152.44
2023-05-22T03:14:13.442Z,100150.38
2023-05-22T03:16:39.909Z,100152.63
2023-05-22T03:19:16.435Z,100158.03
2023-05-22T03:21:44.399Z,100159.34
2023-05-22T03:24:14.569Z,100154.59
2023-05-22T03:26:41.826Z,100152.72
2023-05-22T03:29:08.400Z,100156.25
2023-05-22T03:31:36.411Z,100152.53
2023-05-22T03:34:03.671Z,100157.28
2023-05-22T03:36:32.444Z,100155.59
2023-05-22T03:38:58.913Z,100156.63
2023-05-22T03:41:25.448Z,100165.13
2023-05-22T03:43:51.859Z,100163.78
2023-05-22T03:46:18.330Z,100164.97
2023-05-22T03:48:44.783Z,100174.09
2023-05-22T03:51:11.360Z,100171.22
2023-05-22T03:53:37.723Z,100171.22
2023-05-22T03:56:04.219Z,100171.22
2023-05-22T03:58:30.756Z,100165.16
2023-05-22T04:00:58.604Z,100163.34
2023-05-22T04:03:25.111Z,100171.44
2023-05-22T04:05:51.668Z,100171.75
2023-05-22T04:08:18.265Z,100170.06
2023-05-22T04:10:48.503Z,100167.53
2023-05-22T04:13:16.670Z,100163.34
2023-05-22T04:15:46.749Z,100166.88
2023-05-22T04:18:14.161Z,100171.94
2023-05-22T04:20:41.098Z,100169.78
2023-05-22T04:23:07.940Z,100164.00
2023-05-22T04:25:34.520Z,100179.38
2023-05-22T04:28:04.069Z,100182.41
2023-05-22T04:30:33.733Z,100187.44
2023-05-22T04:33:00.841Z,100183.06
2023-05-22T04:35:29.391Z,100184.38
2023-05-22T04:37:57.079Z,100184.88
2023-05-22T04:40:23.785Z,100186.84
2023-05-22T04:42:50.202Z,100186.00
2023-05-22T04:45:19.285Z,100193.59
2023-05-22T04:47:45.657Z,100193.06
2023-05-22T04:50:14.244Z,100198.47
2023-05-22T04:52:40.768Z,100203.88
2023-05-22T04:55:08.563Z,100200.84
2023-05-22T04:57:34.952Z,100201.19
2023-05-22T05:00:01.780Z,100202.34
2023-05-22T05:02:28.379Z,100203.22
2023-05-22T05:04:54.813Z,100198.97
2023-05-22T05:07:21.530Z,100215.31
2023-05-22T05:09:47.914Z,100210.84
2023-05-22T05:12:16.048Z,100202.03
2023-05-22T05:14:42.450Z,100201.44
2023-05-22T05:17:08.971Z,100205.25
2023-05-22T05:19:37.023Z,100200.88
2023-05-22T05:22:03.720Z,100214.84
2023-05-22T05:24:30.177Z,100206.63
2023-05-22T05:26:56.655Z,100219.75
2023-05-22T05:29:23.159Z,100203.22
2023-05-22T05:31:49.568Z,100213.06
2023-05-22T05:34:16.016Z,100210.13
2023-05-22T05:36:42.451Z,100215.72
2023-05-22T05:39:09.257Z,100214.44
2023-05-22T05:41:35.626Z,100211.03
2023-05-22T05:44:02.100Z,100207.19
2023-05-22T05:46:28.775Z,100214.19
2023-05-22T05:48:55.290Z,100220.16
2023-05-22T05:51:22.146Z,100208.53
2023-05-22T05:53:49.361Z,100222.94
2023-05-22T05:56:16.053Z,100214.88
2023-05-22T05:58:42.470Z,100216.56
2023-05-22T06:01:08.904Z,100216.22
2023-05-22T06:03:35.514Z,100220.69
2023-05-22T06:06:03.185Z,100215.94
2023-05-22T06:08:29.822Z,100223.63
2023-05-22T06:10:56.277Z,100228.34
2023-05-22T06:13:22.628Z,100213.38
2023-05-22T06:15:49.131Z,100225.34
2023-05-22T06:18:17.202Z,100226.69
2023-05-22T06:20:43.661Z,100226.06
2023-05-22T06:23:11.020Z,100229.47
2023-05-22T06:25:39.637Z,100222.44
2023-05-22T06:28:06.372Z,100223.78
2023-05-22T06:33:05.166Z,100230.13
2023-05-22T06:35:31.582Z,100225.19
2023-05-22T06:37:59.005Z,100212.16
2023-05-22T06:40:25.819Z,100229.63
2023-05-22T06:42:52.913Z,100232.78
2023-05-22T06:45:19.882Z,100225.72
2023-05-22T06:47:46.504Z,100227.00
2023-05-22T06:50:13.014Z,100224.06
2023-05-22T06:52:39.422Z,100233.09
2023-05-22T06:55:07.690Z,100234.56
2023-05-22T06:57:34.623Z,100224.47
2023-05-22T07:00:01.057Z,100236.28
2023-05-22T07:02:27.667Z,100240.84
2023-05-22T07:07:46.818Z,100244.44
2023-05-22T07:10:13.386Z,100234.34
2023-05-22T07:12:39.733Z,100243.13
2023-05-22T07:15:10.373Z,100239.53
2023-05-22T07:17:36.743Z,100249.22
2023-05-22T07:20:03.556Z,100257.34
2023-05-22T07:22:29.924Z,100237.84
2023-05-22T07:24:56.289Z,100247.22
2023-05-22T07:27:22.672Z,100240.88
2023-05-22T07:29:49.204Z,100249.25
2023-05-22T07:32:15.657Z,100245.66
2023-05-22T07:34:42.323Z,100247.22
2023-05-22T07:37:16.730Z,100237.34
2023-05-22T07:39:43.149Z,100250.28
2023-05-22T07:42:09.561Z,100254.16
2023-05-22T07:44:35.938Z,100253.47
2023-05-22T07:47:02.351Z,100247.28
2023-05-22T07:49:28.701Z,100249.84
2023-05-22T07:51:55.083Z,100251.50
2023-05-22T07:54:21.533Z,100254.44
2023-05-22T07:56:48.025Z,100260.41
2023-05-22T07:59:16.001Z,100255.03
2023-05-22T08:01:42.444Z,100260.41
2023-05-22T08:04:09.277Z,100260.28
2023-05-22T08:06:36.128Z,100260.47
2023-05-22T08:09:04.396Z,100265.63
2023-05-22T08:11:31.102Z,100260.38
2023-05-22T08:13:57.559Z,100259.78
2023-05-22T08:16:24.080Z,100266.06
2023-05-22T08:18:50.960Z,100269.59
2023-05-22T08:21:18.659Z,100263.69
2023-05-22T08:23:45.412Z,100254.63
2023-05-22T08:26:11.866Z,100259.88
2023-05-22T08:28:41.978Z,100255.47
2023-05-22T08:31:08.376Z,100265.84
2023-05-22T08:33:34.752Z,100248.31
2023-05-22T08:36:01.201Z,100256.97
2023-05-22T08:38:27.615Z,100257.00
2023-05-22T08:40:55.568Z,100256.19
2023-05-22T08:43:22.061Z,100252.50
2023-05-22T08:45:55.959Z,100255.81
2023-05-22T08:48:23.680Z,100252.13
2023-05-22T08:50:57.347Z,100248.06
2023-05-22T08:53:25.742Z,100252.00
2023-05-22T08:55:53.468Z,100240.31
2023-05-22T08:58:21.129Z,100253.63
2023-05-22T09:00:47.975Z,100244.13
2023-05-22T09:03:15.722Z,100236.09
2023-05-22T09:05:42.276Z,100242.44
2023-05-22T09:08:19.793Z,100243.53
2023-05-22T09:10:47.725Z,100244.47
2023-05-22T09:13:27.187Z,100243.88
2023-05-22T09:15:58.033Z,100251.06
2023-05-22T09:18:27.190Z,100240.53
2023-05-22T09:20:53.625Z,100247.97
2023-05-22T09:23:21.992Z,100256.44
2023-05-22T09:25:48.409Z,100246.38
2023-05-22T09:28:14.809Z,100244.19
2023-05-22T09:30:42.446Z,100256.25
2023-05-22T09:33:12.807Z,100246.94
2023-05-22T09:35:39.740Z,100244.09
2023-05-22T09:38:06.458Z,100248.72
2023-05-22T09:40:34.834Z,100253.66
2023-05-22T09:43:02.073Z,100251.75
2023-05-22T09:45:28.412Z,100242.28
2023-05-22T09:47:55.256Z,100252.28
2023-05-22T09:50:21.697Z,100255.06
2023-05-22T09:52:50.821Z,100257.72
2023-05-22T09:55:19.929Z,100251.38
2023-05-22T09:57:48.194Z,100246.00
2023-05-22T10:00:17.761Z,100241.47
2023-05-22T10:02:46.985Z,100250.56
2023-05-22T10:05:23.868Z,100253.41
2023-05-22T10:07:53.214Z,100247.78
2023-05-22T10:10:23.201Z,100251.03
2023-05-22T10:13:04.741Z,100247.81
2023-05-22T10:15:32.188Z,100247.56
2023-05-22T10:17:59.281Z,100241.59
2023-05-22T10:20:29.165Z,100243.38
2023-05-22T10:22:56.464Z,100243.16
2023-05-22T10:25:23.256Z,100233.25
2023-05-22T10:27:52.805Z,100234.31
2023-05-22T10:30:40.724Z,100222.50
2023-05-22T10:33:13.835Z,100226.63
2023-05-22T10:35:43.463Z,100217.84
2023-05-22T10:38:26.208Z,100219.84
2023-05-22T10:40:53.501Z,100215.59
2023-05-22T10:43:21.415Z,100215.69
2023-05-22T10:45:48.354Z,100210.38
2023-05-22T10:48:15.160Z,100216.44
2023-05-22T10:50:52.696Z,100209.56
2023-05-22T10:53:26.123Z,100218.72
2023-05-22T10:55:54.802Z,100215.72
2023-05-22T10:58:31.890Z,100212.03
2023-05-22T11:01:15.930Z,100217.44
2023-05-22T11:04:02.306Z,100207.88
2023-05-22T11:06:45.721Z,100208.72
2023-05-22T11:09:19.846Z,100206.09
2023-05-22T11:11:46.996Z,100202.31
2023-05-22T11:14:17.079Z,100210.88
2023-05-22T11:16:43.775Z,100206.88
2023-05-22T11:19:22.776Z,100207.88
2023-05-22T11:21:50.567Z,100201.72
2023-05-22T11:24:20.025Z,100204.69
2023-05-22T11:27:02.270Z,100200.81
2023-05-22T11:29:29.342Z,100198.44
2023-05-22T11:31:57.749Z,100199.31
2023-05-22T11:34:25.399Z,100191.03
2023-05-22T11:36:59.728Z,100190.31
2023-05-22T11:39:26.735Z,100192.25
2023-05-22T11:41:53.287Z,100184.53
2023-05-22T11:44:19.869Z,100175.59
2023-05-22T11:46:46.359Z,100170.50
2023-05-22T11:49:17.106Z,100177.53
2023-05-22T11:51:44.177Z,100172.09
2023-05-22T11:54:10.538Z,100173.13
2023-05-22T11:56:36.872Z,100164.34
2023-05-22T11:59:03.878Z,100161.81
2023-05-22T12:01:30.287Z,100165.19
2023-05-22T12:03:57.081Z,100162.72
2023-05-22T12:06:23.642Z,100159.72
2023-05-22T12:08:50.170Z,100161.66
2023-05-22T12:11:16.692Z,100165.81
2023-05-22T12:13:43.410Z,100157.84
2023-05-22T12:16:22.207Z,100150.38
2023-05-22T12:18:53.682Z,100150.31
2023-05-22T12:21:20.922Z,100160.84
2023-05-22T12:23:49.106Z,100157.00
2023-05-22T12:26:15.692Z,100149.75
2023-05-22T12:28:42.199Z,100149.78
2023-05-22T12:31:08.612Z,100149.78
2023-05-22T12:33:34.957Z,100144.53
2023-05-22T12:36:07.883Z,100145.63
2023-05-22T12:38:35.517Z,100138.75
2023-05-22T12:41:02.131Z,100146.75
2023-05-22T12:43:28.539Z,100131.25
2023-05-22T12:45:55.089Z,100126.50
2023-05-22T12:48:21.763Z,100135.09
2023-05-22T12:50:48.574Z,100132.31
2023-05-22T12:53:15.155Z,100132.59
2023-05-22T12:55:41.589Z,100135.91
2023-05-22T12:58:07.964Z,100131.22
2023-05-22T13:00:34.676Z,100133.41
2023-05-22T13:03:01.963Z,100132.59
2023-05-22T13:05:28.486Z,100134.50
2023-05-22T13:07:54.957Z,100131.94
2023-05-22T13:10:21.433Z,100130.06
2023-05-22T13:12:51.141Z,100131.66
2023-05-22T13:15:18.622Z,100129.47
2023-05-22T13:17:45.678Z,100129.53
2023-05-22T13:20:12.513Z,100123.72
2023-05-22T13:22:39.062Z,100131.25
2023-05-22T13:25:06.038Z,100129.38
2023-05-22T13:27:33.852Z,100131.53
2023-05-22T13:30:00.547Z,100122.34
2023-05-22T13:32:27.066Z,100117.66
2023-05-22T13:34:53.505Z,100116.53
2023-05-22T13:37:20.092Z,100113.22
2023-05-22T13:39:46.639Z,100124.31
2023-05-22T13:42:13.096Z,100111.88
2023-05-22T13:44:39.559Z,100108.78
2023-05-22T13:47:06.056Z,100105.34
2023-05-22T13:49:32.592Z,100106.53
2023-05-22T13:51:59.153Z,100111.72
2023-05-22T13:54:25.860Z,100106.75
2023-05-22T13:56:52.256Z,100102.94
2023-05-22T13:59:18.621Z,100109.59
2023-05-22T14:01:45.037Z,100107.59
2023-05-22T14:04:11.453Z,100102.72
2023-05-22T14:06:37.841Z,100101.34
2023-05-22T14:09:07.090Z,100096.75
2023-05-22T14:11:33.911Z,100098.84
2023-05-22T14:14:00.396Z,100097.00
2023-05-22T14:16:27.087Z,100086.78
2023-05-22T14:18:53.536Z,100074.38
2023-05-22T14:21:20.009Z,100074.63
2023-05-22T14:23:46.529Z,100077.50
2023-05-22T14:26:14.365Z,100075.03
2023-05-22T14:28:41.325Z,100074.75
2023-05-22T14:31:07.892Z,100079.72
2023-05-22T14:33:35.674Z,100075.31
2023-05-22T14:36:02.509Z,100084.16
2023-05-22T14:38:33.487Z,100073.38
2023-05-22T14:41:03.074Z,100076.13
2023-05-22T14:43:29.565Z,100074.19
2023-05-22T14:45:57.754Z,100067.84
2023-05-22T14:48:26.227Z,100068.38
2023-05-22T14:50:55.718Z,100067.00
2023-05-22T14:53:22.364Z,100069.22
2023-05-22T14:55:48.848Z,100080.03
2023-05-22T14:58:15.273Z,100083.03
2023-05-22T15:00:45.681Z,100091.34
2023-05-22T15:03:12.792Z,100083.25
2023-05-22T15:05:39.488Z,100080.75
2023-05-22T15:08:06.155Z,100078.56
2023-05-22T15:10:32.700Z,100077.19
2023-05-22T15:12:59.182Z,100075.84
2023-05-22T15:15:25.561Z,100073.91
2023-05-22T15:17:52.005Z,100072.28
2023-05-22T15:20:18.535Z,100074.47
2023-05-22T15:22:44.946Z,100080.28
2023-05-22T15:25:14.789Z,100078.66
2023-05-22T15:27:42.618Z,100063.44
2023-05-22T15:30:09.969Z,100059.53
2023-05-22T15:32:36.840Z,100065.91
2023-05-22T15:35:03.582Z,100057.63
2023-05-22T15:37:33.928Z,100055.38
2023-05-22T15:40:01.674Z,100049.19
2023-05-22T15:42:28.341Z,100048.03
2023-05-22T15:44:55.178Z,100048.38
2023-05-22T15:47:21.597Z,100043.41
2023-05-22T15:49:48.032Z,100044.72
2023-05-22T15:52:14.538Z,100055.69
2023-05-22T15:54:41.072Z,100047.41
2023-05-22T15:57:07.500Z,100046.25
2023-05-22T15:59:33.880Z,100052.22
2023-05-22T16:02:00.331Z,100056.59
2023-05-22T16:04:26.710Z,100063.22
2023-05-22T16:06:53.163Z,100078.75
2023-05-22T16:09:19.698Z,100082.22
2023-05-22T16:11:46.137Z,100088.84
2023-05-22T16:14:12.563Z,100082.97
2023-05-22T16:16:39.099Z,100083.16
2023-05-22T16:19:05.734Z,100083.91
2023-05-22T16:21:32.142Z,100083.19
2023-05-22T16:23:58.573Z,100101.28
2023-05-22T16:26:25.205Z,100103.31
2023-05-22T16:28:51.704Z,100109.41
2023-05-22T16:31:19.723Z,100124.88
2023-05-22T16:33:46.160Z,100115.22
2023-05-22T16:36:12.573Z,100117.97
2023-05-22T16:38:38.979Z,100114.84
2023-05-22T16:41:05.393Z,100113.25
2023-05-22T16:43:31.769Z,100124.41
2023-05-22T16:45:58.119Z,100123.94
2023-05-22T16:48:24.535Z,100130.97
2023-05-22T16:50:51.004Z,100151.28
2023-05-22T16:53:17.483Z,100151.97
2023-05-22T16:55:44.126Z,100151.28
2023-05-22T16:58:11.573Z,100146.00
2023-05-22T17:00:39.922Z,100160.66
2023-05-22T17:03:08.064Z,100175.50
2023-05-22T17:05:35.670Z,100188.31
2023-05-22T17:08:02.051Z,100203.63
2023-05-22T17:10:28.467Z,100220.75
2023-05-22T17:12:54.964Z,100211.81
2023-05-22T17:15:21.364Z,100202.47
2023-05-22T17:17:47.760Z,100202.34
2023-05-22T17:20:14.306Z,100200.06
2023-05-22T17:22:42.790Z,100195.22
2023-05-22T17:25:09.656Z,100196.31
2023-05-22T17:27:36.990Z,100201.06
2023-05-22T17:30:05.140Z,100206.28
2023-05-22T17:32:31.676Z,100217.03
2023-05-22T17:34:58.492Z,100226.66
2023-05-22T17:37:24.937Z,100218.28
2023-05-22T17:39:51.629Z,100222.97
2023-05-22T17:42:18.022Z,100217.91
2023-05-22T17:44:44.497Z,100222.91
2023-05-22T17:47:10.866Z,100211.88
2023-05-22T17:49:37.565Z,100205.78
2023-05-22T17:52:04.021Z,100215.03
2023-05-22T17:54:36.694Z,100203.72
2023-05-22T17:57:04.064Z,100210.44
2023-05-22T17:59:32.171Z,100218.88
2023-05-22T18:01:58.835Z,100227.09
2023-05-22T18:04:25.477Z,100236.97
2023-05-22T18:06:52.126Z,100234.66
2023-05-22T18:09:18.494Z,100244.09
2023-05-22T18:11:44.851Z,100238.22
2023-05-22T18:14:11.213Z,100242.00
2023-05-22T18:16:37.667Z,100233.97
2023-05-22T18:19:04.082Z,100244.97
2023-05-22T18:21:30.734Z,100241.63
2023-05-22T18:23:57.143Z,100236.22
2023-05-22T18:26:23.485Z,100236.44
2023-05-22T18:28:49.833Z,100225.75
2023-05-22T18:31:16.521Z,100229.94
2023-05-22T18:33:45.001Z,100234.56
2023-05-22T18:36:12.926Z,100229.34
2023-05-22T18:38:39.358Z,100249.25
2023-05-22T18:41:06.661Z,100235.00
2023-05-22T18:43:33.145Z,100247.59
2023-05-22T18:45:59.640Z,100242.97
2023-05-22T18:48:28.024Z,100248.19
2023-05-22T18:50:57.161Z,100255.13
2023-05-22T18:53:25.049Z,100246.31
2023-05-22T18:55:52.209Z,100244.63
2023-05-22T18:58:18.616Z,100238.75
2023-05-22T19:00:45.582Z,100247.34
2023-05-22T19:03:12.218Z,100248.19
2023-05-22T19:05:38.691Z,100241.03
2023-05-22T19:08:05.767Z,100245.88
2023-05-22T19:10:32.976Z,100240.81
2023-05-22T19:12:59.354Z,100234.94
2023-05-22T19:15:26.113Z,100229.69
2023-05-22T19:17:52.684Z,100230.13
2023-05-22T19:20:19.211Z,100230.72
2023-05-22T19:22:45.646Z,100222.94
2023-05-22T19:25:12.040Z,100226.50
2023-05-22T19:27:39.286Z,100236.94
2023-05-22T19:30:07.138Z,100236.94
2023-05-22T19:32:33.589Z,100234.84
2023-05-22T19:34:59.964Z,100238.13
2023-05-22T19:37:26.473Z,100239.44
2023-05-22T19:39:53.920Z,100231.44
2023-05-22T19:42:20.395Z,100248.13
2023-05-22T19:44:47.023Z,100254.38
2023-05-22T19:47:13.339Z,100257.53
2023-05-22T19:49:39.726Z,100268.19
2023-05-22T19:52:06.568Z,100269.41
2023-05-22T19:54:33.030Z,100270.47
2023-05-22T19:56:59.434Z,100268.75
2023-05-22T19:59:26.845Z,100272.28
2023-05-22T20:01:53.860Z,100272.66
2023-05-22T20:04:21.402Z,100277.06
2023-05-22T20:06:48.437Z,100278.28
2023-05-22T20:09:15.276Z,100277.41
2023-05-22T20:11:41.740Z,100281.97
2023-05-22T20:14:08.102Z,100275.47
2023-05-22T20:16:34.567Z,100284.88
2023-05-22T20:19:02.425Z,100284.31
2023-05-22T20:21:29.171Z,100276.38
2023-05-22T20:23:56.414Z,100288.63
2023-05-22T20:26:23.030Z,100288.16
2023-05-22T20:28:49.667Z,100276.44
2023-05-22T20:31:16.498Z,100295.47
2023-05-22T20:33:42.995Z,100288.13
2023-05-22T20:36:09.668Z,100293.81
2023-05-22T20:38:36.098Z,100304.47
2023-05-22T20:41:02.518Z,100299.25
2023-05-22T20:43:30.661Z,100298.88
2023-05-22T20:45:57.325Z,100298.66
2023-05-22T20:48:24.139Z,100304.53
2023-05-22T20:50:52.881Z,100299.88
2023-05-22T20:53:19.490Z,100304.25
2023-05-22T20:55:45.933Z,100301.97
2023-05-22T20:58:14.100Z,100306.78
2023-05-22T21:00:41.928Z,100312.22
2023-05-22T21:03:08.601Z,100310.06
2023-05-22T21:05:35.236Z,100306.16
2023-05-22T21:08:01.602Z,100319.22
2023-05-22T21:10:28.037Z,100311.94
2023-05-22T21:12:54.426Z,100311.63
2023-05-22T21:15:20.962Z,100319.00
2023-05-22T21:17:47.403Z,100316.00
2023-05-22T21:20:13.893Z,100313.28
2023-05-22T21:22:40.326Z,100326.19
2023-05-22T21:25:07.377Z,100329.31
2023-05-22T21:27:33.744Z,100331.84
2023-05-22T21:30:00.333Z,100329.25
2023-05-22T21:32:26.774Z,100334.22
2023-05-22T21:34:53.213Z,100331.03
2023-05-22T21:37:19.622Z,100331.41
2023-05-22T21:39:46.071Z,100329.31
2023-05-22T21:42:14.995Z,100341.03
2023-05-22T21:44:41.453Z,100328.00
2023-05-22T21:47:08.026Z,100339.09
2023-05-22T21:49:34.450Z,100348.09
2023-05-22T21:52:00.811Z,100345.63
2023-05-22T21:54:27.169Z,100338.72
2023-05-22T21:56:54.201Z,100343.50
2023-05-22T21:59:20.703Z,100329.81
2023-05-22T22:01:47.153Z,100336.47
2023-05-22T22:04:13.651Z,100329.50
2023-05-22T22:06:40.179Z,100335.75
2023-05-22T22:09:06.587Z,100334.28
2023-05-22T22:11:32.988Z,100340.38
2023-05-22T22:13:59.379Z,100343.28
2023-05-22T22:16:26.000Z,100348.66
2023-05-22T22:18:52.479Z,100345.28
2023-05-22T22:21:18.944Z,100342.97
2023-05-22T22:23:45.471Z,100334.53
2023-05-22T22:26:14.745Z,100348.41
2023-05-22T22:28:41.215Z,100355.63
2023-05-22T22:31:07.578Z,100351.88
2023-05-22T22:33:34.028Z,100349.88
2023-05-22T22:36:00.501Z,100357.31
2023-05-22T22:38:26.942Z,100356.28
2023-05-22T22:40:53.263Z,100359.00
2023-05-22T22:43:19.738Z,100354.28
2023-05-22T22:45:46.342Z,100363.28
2023-05-22T22:48:12.676Z,100366.00
2023-05-22T22:50:39.320Z,100368.25
2023-05-22T22:53:05.940Z,100372.94
2023-05-22T22:55:32.577Z,100367.47
2023-05-22T22:57:59.460Z,100386.47
2023-05-22T23:00:25.884Z,100389.19
2023-05-22T23:02:52.240Z,100386.00
2023-05-22T23:05:20.317Z,100392.19
2023-05-22T23:07:47.936Z,100390.41
2023-05-22T23:10:15.532Z,100387.75
2023-05-22T23:12:42.022Z,100405.72
2023-05-22T23:15:09.272Z,100410.41
2023-05-22T23:17:35.924Z,100412.63
2023-05-22T23:20:02.408Z,100414.16
2023-05-22T23:22:28.851Z,100412.44
2023-05-22T23:24:55.342Z,100405.44
2023-05-22T23:27:21.881Z,100411.69
2023-05-22T23:29:48.416Z,100415.00
2023-05-22T23:32:15.030Z,100416.00
2023-05-22T23:34:42.193Z,100414.72
2023-05-22T23:37:08.610Z,100407.50
2023-05-22T23:39:35.024Z,100408.44
2023-05-22T23:42:04.683Z,100409.00
2023-05-22T23:44:31.441Z,100411.97
2023-05-22T23:46:57.976Z,100409.66
2023-05-22T23:49:24.467Z,100413.00
2023-05-22T23:51:50.974Z,100410.94
2023-05-22T23:54:17.884Z,100409.47
2023-05-22T23:56:44.917Z,100412.06
2023-05-22T23:59:11.339Z,100406.38
